sensor_id;sensor_type;location;lat;lon;timestamp;temperature;humidity
64226;DHT22;50545;56.064;26.178;2023-02-08T00:00:46;-1.50;99.90
64226;DHT22;50545;56.064;26.178;2023-02-08T00:03:13;-1.50;99.90
64226;DHT22;50545;56.064;26.178;2023-02-08T00:05:41;-1.50;99.90
64226;DHT22;50545;56.064;26.178;2023-02-08T00:08:08;-1.50;99.90
64226;DHT22;50545;56.064;26.178;2023-02-08T00:10:35;-1.50;99.90
64226;DHT22;50545;56.064;26.178;2023-02-08T00:13:02;-1.50;99.90
64226;DHT22;50545;56.064;26.178;2023-02-08T00:15:30;-1.50;99.90
64226;DHT22;50545;56.064;26.178;2023-02-08T00:17:57;-1.50;99.90
64226;DHT22;50545;56.064;26.178;2023-02-08T00:20:25;-1.50;99.90
64226;DHT22;50545;56.064;26.178;2023-02-08T00:22:52;-1.50;99.90
64226;DHT22;50545;56.064;26.178;2023-02-08T00:25:19;-1.50;99.90
64226;DHT22;50545;56.064;26.178;2023-02-08T00:27:46;-1.50;99.90
64226;DHT22;50545;56.064;26.178;2023-02-08T00:30:14;-1.50;99.90
64226;DHT22;50545;56.064;26.178;2023-02-08T00:32:41;-1.50;99.90
64226;DHT22;50545;56.064;26.178;2023-02-08T00:35:08;-1.50;99.90
64226;DHT22;50545;56.064;26.178;2023-02-08T00:37:35;-1.50;99.90
64226;DHT22;50545;56.064;26.178;2023-02-08T00:40:03;-1.50;99.90
64226;DHT22;50545;56.064;26.178;2023-02-08T00:42:31;-1.50;99.90
64226;DHT22;50545;56.064;26.178;2023-02-08T00:44:59;-1.50;99.90
64226;DHT22;50545;56.064;26.178;2023-02-08T00:47:26;-1.50;99.90
64226;DHT22;50545;56.064;26.178;2023-02-08T00:49:54;-1.50;99.90
64226;DHT22;50545;56.064;26.178;2023-02-08T00:52:21;-1.50;99.90
64226;DHT22;50545;56.064;26.178;2023-02-08T00:54:49;-1.50;99.90
64226;DHT22;50545;56.064;26.178;2023-02-08T00:57:16;-1.50;99.90
64226;DHT22;50545;56.064;26.178;2023-02-08T00:59:43;-1.50;99.90
64226;DHT22;50545;56.064;26.178;2023-02-08T01:02:10;-1.50;99.90
64226;DHT22;50545;56.064;26.178;2023-02-08T01:04:38;-1.50;99.90
64226;DHT22;50545;56.064;26.178;2023-02-08T01:07:05;-1.50;99.90
64226;DHT22;50545;56.064;26.178;2023-02-08T01:09:33;-1.50;99.90
64226;DHT22;50545;56.064;26.178;2023-02-08T01:12:00;-1.50;99.90
64226;DHT22;50545;56.064;26.178;2023-02-08T01:14:27;-1.50;99.90
64226;DHT22;50545;56.064;26.178;2023-02-08T01:16:55;-1.40;99.90
64226;DHT22;50545;56.064;26.178;2023-02-08T01:19:22;-1.50;99.90
64226;DHT22;50545;56.064;26.178;2023-02-08T01:21:49;-1.50;99.90
64226;DHT22;50545;56.064;26.178;2023-02-08T01:24:16;-1.50;99.90
64226;DHT22;50545;56.064;26.178;2023-02-08T01:26:44;-1.50;99.90
64226;DHT22;50545;56.064;26.178;2023-02-08T01:29:11;-1.50;99.90
64226;DHT22;50545;56.064;26.178;2023-02-08T01:31:40;-1.50;99.90
64226;DHT22;50545;56.064;26.178;2023-02-08T01:34:08;-1.50;99.90
64226;DHT22;50545;56.064;26.178;2023-02-08T01:36:37;-1.50;99.90
64226;DHT22;50545;56.064;26.178;2023-02-08T01:39:06;-1.50;99.90
64226;DHT22;50545;56.064;26.178;2023-02-08T01:41:39;-1.50;99.90
64226;DHT22;50545;56.064;26.178;2023-02-08T01:46:44;-1.50;99.90
64226;DHT22;50545;56.064;26.178;2023-02-08T01:49:32;-1.50;99.90
64226;DHT22;50545;56.064;26.178;2023-02-08T01:52:13;-1.50;99.90
64226;DHT22;50545;56.064;26.178;2023-02-08T01:54:51;-1.50;99.90
64226;DHT22;50545;56.064;26.178;2023-02-08T01:57:20;-1.50;99.90
64226;DHT22;50545;56.064;26.178;2023-02-08T01:59:54;-1.50;99.90
64226;DHT22;50545;56.064;26.178;2023-02-08T02:02:22;-1.50;99.90
64226;DHT22;50545;56.064;26.178;2023-02-08T02:04:51;-1.50;99.90
64226;DHT22;50545;56.064;26.178;2023-02-08T02:07:21;-1.50;99.90
64226;DHT22;50545;56.064;26.178;2023-02-08T02:12:48;-1.50;99.90
64226;DHT22;50545;56.064;26.178;2023-02-08T02:15:16;-1.50;99.90
64226;DHT22;50545;56.064;26.178;2023-02-08T02:17:44;-1.50;99.90
64226;DHT22;50545;56.064;26.178;2023-02-08T02:26:57;-1.50;99.90
64226;DHT22;50545;56.064;26.178;2023-02-08T02:32:45;-1.60;99.90
64226;DHT22;50545;56.064;26.178;2023-02-08T02:40:15;-1.60;99.90
64226;DHT22;50545;56.064;26.178;2023-02-08T02:43:17;-1.70;99.90
64226;DHT22;50545;56.064;26.178;2023-02-08T02:52:45;-1.80;99.90
64226;DHT22;50545;56.064;26.178;2023-02-08T02:55:18;-1.80;99.90
64226;DHT22;50545;56.064;26.178;2023-02-08T02:57:49;-1.90;99.90
64226;DHT22;50545;56.064;26.178;2023-02-08T03:00:25;-1.90;99.90
64226;DHT22;50545;56.064;26.178;2023-02-08T03:02:52;-1.90;99.90
64226;DHT22;50545;56.064;26.178;2023-02-08T03:05:21;-1.90;99.90
64226;DHT22;50545;56.064;26.178;2023-02-08T03:13:57;-1.80;99.90
64226;DHT22;50545;56.064;26.178;2023-02-08T03:23:02;-1.70;99.90
64226;DHT22;50545;56.064;26.178;2023-02-08T03:25:58;-1.60;99.90
64226;DHT22;50545;56.064;26.178;2023-02-08T03:28:53;-1.70;99.90
64226;DHT22;50545;56.064;26.178;2023-02-08T03:31:45;-1.60;99.90
64226;DHT22;50545;56.064;26.178;2023-02-08T03:37:57;-1.60;99.90
64226;DHT22;50545;56.064;26.178;2023-02-08T03:40:54;-1.50;99.90
64226;DHT22;50545;56.064;26.178;2023-02-08T03:43:24;-1.50;99.90
64226;DHT22;50545;56.064;26.178;2023-02-08T03:46:00;-1.50;99.90
64226;DHT22;50545;56.064;26.178;2023-02-08T03:48:28;-1.50;99.90
64226;DHT22;50545;56.064;26.178;2023-02-08T03:50:57;-1.40;99.90
64226;DHT22;50545;56.064;26.178;2023-02-08T03:53:27;-1.40;99.90
64226;DHT22;50545;56.064;26.178;2023-02-08T03:55:58;-1.40;99.90
64226;DHT22;50545;56.064;26.178;2023-02-08T03:58:39;-1.40;99.90
64226;DHT22;50545;56.064;26.178;2023-02-08T04:01:13;-1.40;99.90
64226;DHT22;50545;56.064;26.178;2023-02-08T04:03:43;-1.40;99.90
64226;DHT22;50545;56.064;26.178;2023-02-08T04:06:11;-1.40;99.90
64226;DHT22;50545;56.064;26.178;2023-02-08T04:08:39;-1.40;99.90
64226;DHT22;50545;56.064;26.178;2023-02-08T04:11:06;-1.40;99.90
64226;DHT22;50545;56.064;26.178;2023-02-08T04:13:33;-1.40;99.90
64226;DHT22;50545;56.064;26.178;2023-02-08T04:16:00;-1.40;99.90
64226;DHT22;50545;56.064;26.178;2023-02-08T04:18:28;-1.40;99.90
64226;DHT22;50545;56.064;26.178;2023-02-08T04:20:55;-1.40;99.90
64226;DHT22;50545;56.064;26.178;2023-02-08T04:23:22;-1.40;99.90
64226;DHT22;50545;56.064;26.178;2023-02-08T04:25:49;-1.40;99.90
64226;DHT22;50545;56.064;26.178;2023-02-08T04:28:16;-1.40;99.90
64226;DHT22;50545;56.064;26.178;2023-02-08T04:30:44;-1.30;99.90
64226;DHT22;50545;56.064;26.178;2023-02-08T04:33:11;-1.40;99.90
64226;DHT22;50545;56.064;26.178;2023-02-08T04:35:41;-1.40;99.90
64226;DHT22;50545;56.064;26.178;2023-02-08T04:38:08;-1.40;99.90
64226;DHT22;50545;56.064;26.178;2023-02-08T04:40:35;-1.40;99.90
64226;DHT22;50545;56.064;26.178;2023-02-08T04:43:03;-1.40;99.90
64226;DHT22;50545;56.064;26.178;2023-02-08T04:45:30;-1.40;99.90
64226;DHT22;50545;56.064;26.178;2023-02-08T04:48:00;-1.40;99.90
64226;DHT22;50545;56.064;26.178;2023-02-08T04:50:28;-1.40;99.90
64226;DHT22;50545;56.064;26.178;2023-02-08T04:52:55;-1.40;99.90
64226;DHT22;50545;56.064;26.178;2023-02-08T04:55:22;-1.40;99.90
64226;DHT22;50545;56.064;26.178;2023-02-08T04:57:49;-1.40;99.90
64226;DHT22;50545;56.064;26.178;2023-02-08T05:00:17;-1.40;99.90
64226;DHT22;50545;56.064;26.178;2023-02-08T05:02:45;-1.40;99.90
64226;DHT22;50545;56.064;26.178;2023-02-08T05:05:12;-1.40;99.90
64226;DHT22;50545;56.064;26.178;2023-02-08T05:07:39;-1.40;99.90
64226;DHT22;50545;56.064;26.178;2023-02-08T05:10:07;-1.40;99.90
64226;DHT22;50545;56.064;26.178;2023-02-08T05:12:34;-1.40;99.90
64226;DHT22;50545;56.064;26.178;2023-02-08T05:15:01;-1.40;99.90
64226;DHT22;50545;56.064;26.178;2023-02-08T05:17:29;-1.40;99.90
64226;DHT22;50545;56.064;26.178;2023-02-08T05:19:56;-1.40;99.90
64226;DHT22;50545;56.064;26.178;2023-02-08T05:22:23;-1.50;99.90
64226;DHT22;50545;56.064;26.178;2023-02-08T05:24:50;-1.40;99.90
64226;DHT22;50545;56.064;26.178;2023-02-08T05:27:18;-1.50;99.90
64226;DHT22;50545;56.064;26.178;2023-02-08T05:29:45;-1.40;99.90
64226;DHT22;50545;56.064;26.178;2023-02-08T05:32:12;-1.50;99.90
64226;DHT22;50545;56.064;26.178;2023-02-08T05:34:39;-1.50;99.90
64226;DHT22;50545;56.064;26.178;2023-02-08T05:37:07;-1.50;99.90
64226;DHT22;50545;56.064;26.178;2023-02-08T05:39:34;-1.50;99.90
64226;DHT22;50545;56.064;26.178;2023-02-08T05:42:01;-1.50;99.90
64226;DHT22;50545;56.064;26.178;2023-02-08T05:44:28;-1.40;99.90
64226;DHT22;50545;56.064;26.178;2023-02-08T05:46:55;-1.50;99.90
64226;DHT22;50545;56.064;26.178;2023-02-08T05:49:23;-1.50;99.90
64226;DHT22;50545;56.064;26.178;2023-02-08T05:51:50;-1.40;99.90
64226;DHT22;50545;56.064;26.178;2023-02-08T05:54:17;-1.50;99.90
64226;DHT22;50545;56.064;26.178;2023-02-08T05:56:44;-1.40;99.90
64226;DHT22;50545;56.064;26.178;2023-02-08T05:59:12;-1.40;99.90
64226;DHT22;50545;56.064;26.178;2023-02-08T06:01:39;-1.40;99.90
64226;DHT22;50545;56.064;26.178;2023-02-08T06:04:07;-1.40;99.90
64226;DHT22;50545;56.064;26.178;2023-02-08T06:06:34;-1.40;99.90
64226;DHT22;50545;56.064;26.178;2023-02-08T06:09:01;-1.40;99.90
64226;DHT22;50545;56.064;26.178;2023-02-08T06:11:29;-1.40;99.90
64226;DHT22;50545;56.064;26.178;2023-02-08T06:13:56;-1.40;99.90
64226;DHT22;50545;56.064;26.178;2023-02-08T06:16:23;-1.30;99.90
64226;DHT22;50545;56.064;26.178;2023-02-08T06:18:50;-1.30;99.90
64226;DHT22;50545;56.064;26.178;2023-02-08T06:21:17;-1.30;99.90
64226;DHT22;50545;56.064;26.178;2023-02-08T06:23:45;-1.30;99.90
64226;DHT22;50545;56.064;26.178;2023-02-08T06:26:12;-1.20;99.90
64226;DHT22;50545;56.064;26.178;2023-02-08T06:28:39;-1.20;99.90
64226;DHT22;50545;56.064;26.178;2023-02-08T06:31:07;-1.20;99.90
64226;DHT22;50545;56.064;26.178;2023-02-08T06:33:34;-1.10;99.90
64226;DHT22;50545;56.064;26.178;2023-02-08T06:36:01;-1.10;99.90
64226;DHT22;50545;56.064;26.178;2023-02-08T06:38:28;-1.10;99.90
64226;DHT22;50545;56.064;26.178;2023-02-08T06:40:56;-1.10;99.90
64226;DHT22;50545;56.064;26.178;2023-02-08T06:43:23;-1.00;99.90
64226;DHT22;50545;56.064;26.178;2023-02-08T06:45:50;-1.00;99.90
64226;DHT22;50545;56.064;26.178;2023-02-08T06:48:18;-1.00;99.90
64226;DHT22;50545;56.064;26.178;2023-02-08T06:50:45;-0.90;99.90
64226;DHT22;50545;56.064;26.178;2023-02-08T06:53:12;-0.90;99.90
64226;DHT22;50545;56.064;26.178;2023-02-08T06:55:39;-0.80;99.90
64226;DHT22;50545;56.064;26.178;2023-02-08T06:58:06;-0.80;99.90
64226;DHT22;50545;56.064;26.178;2023-02-08T07:00:34;-0.80;99.90
64226;DHT22;50545;56.064;26.178;2023-02-08T07:03:01;-0.70;99.90
64226;DHT22;50545;56.064;26.178;2023-02-08T07:05:28;-0.70;99.90
64226;DHT22;50545;56.064;26.178;2023-02-08T07:07:55;-0.60;99.90
64226;DHT22;50545;56.064;26.178;2023-02-08T07:10:23;-0.60;99.90
64226;DHT22;50545;56.064;26.178;2023-02-08T07:12:50;-0.50;99.90
64226;DHT22;50545;56.064;26.178;2023-02-08T07:15:17;-0.50;99.90
64226;DHT22;50545;56.064;26.178;2023-02-08T07:17:44;-0.50;99.90
64226;DHT22;50545;56.064;26.178;2023-02-08T07:20:12;-0.40;99.90
64226;DHT22;50545;56.064;26.178;2023-02-08T07:22:39;-0.30;99.90
64226;DHT22;50545;56.064;26.178;2023-02-08T07:25:08;-0.30;99.90
64226;DHT22;50545;56.064;26.178;2023-02-08T07:27:35;-0.30;99.90
64226;DHT22;50545;56.064;26.178;2023-02-08T07:30:03;-0.20;99.90
64226;DHT22;50545;56.064;26.178;2023-02-08T07:32:31;-0.20;99.90
64226;DHT22;50545;56.064;26.178;2023-02-08T07:35:00;-0.10;99.90
64226;DHT22;50545;56.064;26.178;2023-02-08T07:37:27;-0.10;99.90
64226;DHT22;50545;56.064;26.178;2023-02-08T07:39:55;0.00;99.90
64226;DHT22;50545;56.064;26.178;2023-02-08T07:42:22;0.10;99.90
64226;DHT22;50545;56.064;26.178;2023-02-08T07:44:49;0.20;99.90
64226;DHT22;50545;56.064;26.178;2023-02-08T07:47:17;0.30;99.90
64226;DHT22;50545;56.064;26.178;2023-02-08T07:49:44;0.30;99.90
64226;DHT22;50545;56.064;26.178;2023-02-08T07:52:11;0.30;99.90
64226;DHT22;50545;56.064;26.178;2023-02-08T07:54:38;0.40;99.90
64226;DHT22;50545;56.064;26.178;2023-02-08T07:57:05;0.40;99.90
64226;DHT22;50545;56.064;26.178;2023-02-08T07:59:34;0.40;99.90
64226;DHT22;50545;56.064;26.178;2023-02-08T08:02:01;0.40;99.90
64226;DHT22;50545;56.064;26.178;2023-02-08T08:04:28;0.40;99.90
64226;DHT22;50545;56.064;26.178;2023-02-08T08:06:56;0.40;99.90
64226;DHT22;50545;56.064;26.178;2023-02-08T08:09:23;0.40;99.90
64226;DHT22;50545;56.064;26.178;2023-02-08T08:11:50;0.40;99.90
64226;DHT22;50545;56.064;26.178;2023-02-08T08:14:17;0.40;99.90
64226;DHT22;50545;56.064;26.178;2023-02-08T08:16:45;0.40;99.90
64226;DHT22;50545;56.064;26.178;2023-02-08T08:19:12;0.40;99.90
64226;DHT22;50545;56.064;26.178;2023-02-08T08:21:39;0.40;99.90
64226;DHT22;50545;56.064;26.178;2023-02-08T08:24:06;0.50;99.90
64226;DHT22;50545;56.064;26.178;2023-02-08T08:26:33;0.50;99.90
64226;DHT22;50545;56.064;26.178;2023-02-08T08:29:01;0.60;99.90
64226;DHT22;50545;56.064;26.178;2023-02-08T08:31:28;0.60;99.90
64226;DHT22;50545;56.064;26.178;2023-02-08T08:33:56;0.70;99.90
64226;DHT22;50545;56.064;26.178;2023-02-08T08:36:24;0.70;99.90
64226;DHT22;50545;56.064;26.178;2023-02-08T08:38:51;0.70;99.90
64226;DHT22;50545;56.064;26.178;2023-02-08T08:41:18;0.80;99.90
64226;DHT22;50545;56.064;26.178;2023-02-08T08:43:48;0.70;99.90
64226;DHT22;50545;56.064;26.178;2023-02-08T08:46:15;0.80;99.90
64226;DHT22;50545;56.064;26.178;2023-02-08T08:48:44;0.80;99.90
64226;DHT22;50545;56.064;26.178;2023-02-08T08:51:11;0.80;99.90
64226;DHT22;50545;56.064;26.178;2023-02-08T08:53:39;0.80;99.90
64226;DHT22;50545;56.064;26.178;2023-02-08T08:56:06;0.80;99.90
64226;DHT22;50545;56.064;26.178;2023-02-08T08:58:33;0.80;99.90
64226;DHT22;50545;56.064;26.178;2023-02-08T09:01:01;0.90;99.90
64226;DHT22;50545;56.064;26.178;2023-02-08T09:03:28;0.90;99.90
64226;DHT22;50545;56.064;26.178;2023-02-08T09:05:56;0.90;99.90
64226;DHT22;50545;56.064;26.178;2023-02-08T09:08:23;0.90;99.90
64226;DHT22;50545;56.064;26.178;2023-02-08T09:10:50;0.90;99.90
64226;DHT22;50545;56.064;26.178;2023-02-08T09:13:17;0.90;99.90
64226;DHT22;50545;56.064;26.178;2023-02-08T09:15:46;0.90;99.90
64226;DHT22;50545;56.064;26.178;2023-02-08T09:18:14;0.90;99.90
64226;DHT22;50545;56.064;26.178;2023-02-08T09:20:41;0.90;99.90
64226;DHT22;50545;56.064;26.178;2023-02-08T09:23:09;0.90;99.90
64226;DHT22;50545;56.064;26.178;2023-02-08T09:25:37;0.90;99.90
64226;DHT22;50545;56.064;26.178;2023-02-08T09:28:04;0.90;99.90
64226;DHT22;50545;56.064;26.178;2023-02-08T09:30:31;1.00;99.90
64226;DHT22;50545;56.064;26.178;2023-02-08T09:32:59;1.00;99.90
64226;DHT22;50545;56.064;26.178;2023-02-08T09:35:26;1.00;99.90
64226;DHT22;50545;56.064;26.178;2023-02-08T09:37:54;1.10;99.90
64226;DHT22;50545;56.064;26.178;2023-02-08T09:40:27;1.20;99.90
64226;DHT22;50545;56.064;26.178;2023-02-08T09:46:17;1.40;99.90
64226;DHT22;50545;56.064;26.178;2023-02-08T09:48:46;1.40;99.90
64226;DHT22;50545;56.064;26.178;2023-02-08T09:51:38;1.40;99.90
64226;DHT22;50545;56.064;26.178;2023-02-08T09:54:20;1.30;99.90
64226;DHT22;50545;56.064;26.178;2023-02-08T09:56:49;1.20;99.90
64226;DHT22;50545;56.064;26.178;2023-02-08T09:59:26;1.10;99.90
64226;DHT22;50545;56.064;26.178;2023-02-08T10:02:16;1.00;99.90
64226;DHT22;50545;56.064;26.178;2023-02-08T10:04:50;0.90;99.90
64226;DHT22;50545;56.064;26.178;2023-02-08T10:07:22;0.90;99.90
64226;DHT22;50545;56.064;26.178;2023-02-08T10:09:50;0.90;99.90
64226;DHT22;50545;56.064;26.178;2023-02-08T10:12:36;1.00;99.90
64226;DHT22;50545;56.064;26.178;2023-02-08T10:21:21;1.30;99.90
64226;DHT22;50545;56.064;26.178;2023-02-08T10:24:15;1.20;99.90
64226;DHT22;50545;56.064;26.178;2023-02-08T10:26:59;1.20;99.90
64226;DHT22;50545;56.064;26.178;2023-02-08T10:35:08;1.10;99.90
64226;DHT22;50545;56.064;26.178;2023-02-08T10:37:39;1.10;99.90
64226;DHT22;50545;56.064;26.178;2023-02-08T10:42:52;1.10;99.90
64226;DHT22;50545;56.064;26.178;2023-02-08T10:45:25;1.20;99.90
64226;DHT22;50545;56.064;26.178;2023-02-08T10:48:02;1.30;99.90
64226;DHT22;50545;56.064;26.178;2023-02-08T10:50:43;1.40;99.90
64226;DHT22;50545;56.064;26.178;2023-02-08T10:53:15;1.50;99.90
64226;DHT22;50545;56.064;26.178;2023-02-08T10:55:44;1.70;99.90
64226;DHT22;50545;56.064;26.178;2023-02-08T10:58:16;1.70;99.90
64226;DHT22;50545;56.064;26.178;2023-02-08T11:00:44;1.80;99.90
64226;DHT22;50545;56.064;26.178;2023-02-08T11:05:42;2.00;99.90
64226;DHT22;50545;56.064;26.178;2023-02-08T11:08:14;1.90;99.90
64226;DHT22;50545;56.064;26.178;2023-02-08T11:10:54;1.90;99.90
64226;DHT22;50545;56.064;26.178;2023-02-08T11:13:23;1.90;99.90
64226;DHT22;50545;56.064;26.178;2023-02-08T11:15:57;1.80;99.90
64226;DHT22;50545;56.064;26.178;2023-02-08T11:18:28;1.70;99.90
64226;DHT22;50545;56.064;26.178;2023-02-08T11:21:01;1.60;99.90
64226;DHT22;50545;56.064;26.178;2023-02-08T11:23:34;1.60;99.90
64226;DHT22;50545;56.064;26.178;2023-02-08T11:34:34;1.70;99.90
64226;DHT22;50545;56.064;26.178;2023-02-08T11:37:23;1.70;99.90
64226;DHT22;50545;56.064;26.178;2023-02-08T11:39:56;1.70;99.90
64226;DHT22;50545;56.064;26.178;2023-02-08T11:42:27;1.60;99.90
64226;DHT22;50545;56.064;26.178;2023-02-08T11:44:57;1.60;99.90
64226;DHT22;50545;56.064;26.178;2023-02-08T11:47:31;1.60;99.90
64226;DHT22;50545;56.064;26.178;2023-02-08T11:50:04;1.50;99.90
64226;DHT22;50545;56.064;26.178;2023-02-08T11:52:34;1.60;99.90
64226;DHT22;50545;56.064;26.178;2023-02-08T12:00:38;1.40;99.90
64226;DHT22;50545;56.064;26.178;2023-02-08T12:03:12;1.30;99.90
64226;DHT22;50545;56.064;26.178;2023-02-08T12:06:05;1.40;99.90
64226;DHT22;50545;56.064;26.178;2023-02-08T12:13:57;1.30;99.90
64226;DHT22;50545;56.064;26.178;2023-02-08T12:22:23;1.20;99.90
64226;DHT22;50545;56.064;26.178;2023-02-08T12:28:00;1.30;99.90
64226;DHT22;50545;56.064;26.178;2023-02-08T12:33:23;1.20;99.90
64226;DHT22;50545;56.064;26.178;2023-02-08T12:39:07;1.20;99.90
64226;DHT22;50545;56.064;26.178;2023-02-08T12:42:50;1.20;99.90
64226;DHT22;50545;56.064;26.178;2023-02-08T12:51:01;1.10;99.90
64226;DHT22;50545;56.064;26.178;2023-02-08T12:53:41;1.10;99.90
64226;DHT22;50545;56.064;26.178;2023-02-08T12:56:16;1.10;99.90
64226;DHT22;50545;56.064;26.178;2023-02-08T12:58:49;1.20;99.90
64226;DHT22;50545;56.064;26.178;2023-02-08T13:01:30;1.20;99.90
64226;DHT22;50545;56.064;26.178;2023-02-08T13:04:15;1.20;99.90
64226;DHT22;50545;56.064;26.178;2023-02-08T13:07:15;1.20;99.90
64226;DHT22;50545;56.064;26.178;2023-02-08T13:09:59;1.20;99.90
64226;DHT22;50545;56.064;26.178;2023-02-08T13:12:35;1.10;99.90
64226;DHT22;50545;56.064;26.178;2023-02-08T13:15:19;1.10;99.90
64226;DHT22;50545;56.064;26.178;2023-02-08T13:20:57;1.10;99.90
64226;DHT22;50545;56.064;26.178;2023-02-08T13:23:45;1.00;99.90
64226;DHT22;50545;56.064;26.178;2023-02-08T13:26:24;1.00;99.90
64226;DHT22;50545;56.064;26.178;2023-02-08T13:28:56;1.00;99.90
64226;DHT22;50545;56.064;26.178;2023-02-08T13:31:28;1.00;99.90
64226;DHT22;50545;56.064;26.178;2023-02-08T13:34:02;1.00;99.90
64226;DHT22;50545;56.064;26.178;2023-02-08T13:36:36;1.10;99.90
64226;DHT22;50545;56.064;26.178;2023-02-08T13:39:32;1.10;99.90
64226;DHT22;50545;56.064;26.178;2023-02-08T13:42:03;1.00;99.90
64226;DHT22;50545;56.064;26.178;2023-02-08T13:44:38;1.00;99.90
64226;DHT22;50545;56.064;26.178;2023-02-08T13:47:07;1.00;99.90
64226;DHT22;50545;56.064;26.178;2023-02-08T14:00:27;0.70;99.90
64226;DHT22;50545;56.064;26.178;2023-02-08T14:17:15;0.60;99.90
64226;DHT22;50545;56.064;26.178;2023-02-08T14:19:45;0.70;99.90
64226;DHT22;50545;56.064;26.178;2023-02-08T14:22:21;0.60;99.90
64226;DHT22;50545;56.064;26.178;2023-02-08T14:27:39;0.60;99.90
64226;DHT22;50545;56.064;26.178;2023-02-08T14:30:27;0.50;99.90
64226;DHT22;50545;56.064;26.178;2023-02-08T14:33:10;0.50;99.90
64226;DHT22;50545;56.064;26.178;2023-02-08T14:35:56;0.50;99.90
64226;DHT22;50545;56.064;26.178;2023-02-08T14:45:51;0.50;99.90
64226;DHT22;50545;56.064;26.178;2023-02-08T14:48:32;0.40;99.90
64226;DHT22;50545;56.064;26.178;2023-02-08T14:56:35;0.40;99.90
64226;DHT22;50545;56.064;26.178;2023-02-08T14:59:14;0.40;99.90
64226;DHT22;50545;56.064;26.178;2023-02-08T15:01:44;0.40;99.90
64226;DHT22;50545;56.064;26.178;2023-02-08T15:04:13;0.40;99.90
64226;DHT22;50545;56.064;26.178;2023-02-08T15:06:56;0.40;99.90
64226;DHT22;50545;56.064;26.178;2023-02-08T15:09:29;0.40;99.90
64226;DHT22;50545;56.064;26.178;2023-02-08T15:12:28;0.40;99.90
64226;DHT22;50545;56.064;26.178;2023-02-08T15:14:58;0.40;99.90
64226;DHT22;50545;56.064;26.178;2023-02-08T15:17:48;0.30;99.90
64226;DHT22;50545;56.064;26.178;2023-02-08T15:20:26;0.30;99.90
64226;DHT22;50545;56.064;26.178;2023-02-08T15:23:18;0.30;99.90
64226;DHT22;50545;56.064;26.178;2023-02-08T15:26:18;0.30;99.90
64226;DHT22;50545;56.064;26.178;2023-02-08T15:28:53;0.30;99.90
64226;DHT22;50545;56.064;26.178;2023-02-08T15:31:30;0.30;99.90
64226;DHT22;50545;56.064;26.178;2023-02-08T15:33:59;0.30;99.90
64226;DHT22;50545;56.064;26.178;2023-02-08T15:36:33;0.30;99.90
64226;DHT22;50545;56.064;26.178;2023-02-08T15:39:31;0.30;99.90
64226;DHT22;50545;56.064;26.178;2023-02-08T15:42:00;0.30;99.90
64226;DHT22;50545;56.064;26.178;2023-02-08T15:44:30;0.30;99.90
64226;DHT22;50545;56.064;26.178;2023-02-08T15:47:05;0.30;99.90
64226;DHT22;50545;56.064;26.178;2023-02-08T15:49:40;0.30;99.90
64226;DHT22;50545;56.064;26.178;2023-02-08T15:52:14;0.30;99.90
64226;DHT22;50545;56.064;26.178;2023-02-08T15:54:44;0.30;99.90
64226;DHT22;50545;56.064;26.178;2023-02-08T15:57:35;0.30;99.90
64226;DHT22;50545;56.064;26.178;2023-02-08T16:00:11;0.30;99.90
64226;DHT22;50545;56.064;26.178;2023-02-08T16:02:40;0.30;99.90
64226;DHT22;50545;56.064;26.178;2023-02-08T16:05:18;0.20;99.90
64226;DHT22;50545;56.064;26.178;2023-02-08T16:07:46;0.20;99.90
64226;DHT22;50545;56.064;26.178;2023-02-08T16:13:03;0.20;99.90
64226;DHT22;50545;56.064;26.178;2023-02-08T16:15:45;0.30;99.90
64226;DHT22;50545;56.064;26.178;2023-02-08T16:18:47;0.20;99.90
64226;DHT22;50545;56.064;26.178;2023-02-08T16:26:43;0.20;99.90
64226;DHT22;50545;56.064;26.178;2023-02-08T16:29:32;0.20;99.90
64226;DHT22;50545;56.064;26.178;2023-02-08T16:34:34;0.20;99.90
64226;DHT22;50545;56.064;26.178;2023-02-08T16:37:03;0.20;99.90
64226;DHT22;50545;56.064;26.178;2023-02-08T16:39:36;0.20;99.90
64226;DHT22;50545;56.064;26.178;2023-02-08T16:42:18;0.20;99.90
64226;DHT22;50545;56.064;26.178;2023-02-08T16:45:12;0.20;99.90
64226;DHT22;50545;56.064;26.178;2023-02-08T16:47:55;0.20;99.90
64226;DHT22;50545;56.064;26.178;2023-02-08T16:50:32;0.20;99.90
64226;DHT22;50545;56.064;26.178;2023-02-08T16:53:02;0.20;99.90
64226;DHT22;50545;56.064;26.178;2023-02-08T16:55:31;0.20;99.90
64226;DHT22;50545;56.064;26.178;2023-02-08T16:57:59;0.20;99.90
64226;DHT22;50545;56.064;26.178;2023-02-08T17:00:33;0.20;99.90
64226;DHT22;50545;56.064;26.178;2023-02-08T17:03:01;0.20;99.90
64226;DHT22;50545;56.064;26.178;2023-02-08T17:05:31;0.20;99.90
64226;DHT22;50545;56.064;26.178;2023-02-08T17:08:05;0.20;99.90
64226;DHT22;50545;56.064;26.178;2023-02-08T17:10:34;0.20;99.90
64226;DHT22;50545;56.064;26.178;2023-02-08T17:13:02;0.20;99.90
64226;DHT22;50545;56.064;26.178;2023-02-08T17:15:47;0.10;99.90
64226;DHT22;50545;56.064;26.178;2023-02-08T17:18:15;0.20;99.90
64226;DHT22;50545;56.064;26.178;2023-02-08T17:20:43;0.10;99.90
64226;DHT22;50545;56.064;26.178;2023-02-08T17:23:11;0.10;99.90
64226;DHT22;50545;56.064;26.178;2023-02-08T17:25:38;0.10;99.90
64226;DHT22;50545;56.064;26.178;2023-02-08T17:28:09;0.10;99.90
64226;DHT22;50545;56.064;26.178;2023-02-08T17:30:40;0.10;99.90
64226;DHT22;50545;56.064;26.178;2023-02-08T17:33:09;0.10;99.90
64226;DHT22;50545;56.064;26.178;2023-02-08T17:35:37;0.10;99.90
64226;DHT22;50545;56.064;26.178;2023-02-08T17:38:05;0.10;99.90
64226;DHT22;50545;56.064;26.178;2023-02-08T17:40:34;0.10;99.90
64226;DHT22;50545;56.064;26.178;2023-02-08T17:43:03;0.10;99.90
64226;DHT22;50545;56.064;26.178;2023-02-08T17:45:36;0.10;99.90
64226;DHT22;50545;56.064;26.178;2023-02-08T17:48:03;0.10;99.90
64226;DHT22;50545;56.064;26.178;2023-02-08T17:50:30;0.10;99.90
64226;DHT22;50545;56.064;26.178;2023-02-08T17:52:58;0.10;99.90
64226;DHT22;50545;56.064;26.178;2023-02-08T17:55:25;0.10;99.90
64226;DHT22;50545;56.064;26.178;2023-02-08T17:57:52;0.10;99.90
64226;DHT22;50545;56.064;26.178;2023-02-08T18:00:21;0.10;99.90
64226;DHT22;50545;56.064;26.178;2023-02-08T18:02:51;0.10;99.90
64226;DHT22;50545;56.064;26.178;2023-02-08T18:05:22;0.10;99.90
64226;DHT22;50545;56.064;26.178;2023-02-08T18:07:51;0.00;99.90
64226;DHT22;50545;56.064;26.178;2023-02-08T18:10:19;0.00;99.90
64226;DHT22;50545;56.064;26.178;2023-02-08T18:12:46;0.00;99.90
64226;DHT22;50545;56.064;26.178;2023-02-08T18:15:19;0.00;99.90
64226;DHT22;50545;56.064;26.178;2023-02-08T18:17:47;0.00;99.90
64226;DHT22;50545;56.064;26.178;2023-02-08T18:20:16;0.00;99.90
64226;DHT22;50545;56.064;26.178;2023-02-08T18:22:44;0.00;99.90
64226;DHT22;50545;56.064;26.178;2023-02-08T18:25:12;0.00;99.90
64226;DHT22;50545;56.064;26.178;2023-02-08T18:27:40;0.00;99.90
64226;DHT22;50545;56.064;26.178;2023-02-08T18:30:08;0.00;99.90